createdAt,value
2018-01-31T01:52:21.937Z,922.53
2018-01-31T01:53:25.818Z,922.54
2018-01-31T01:54:57.528Z,922.51
2018-01-31T01:56:29.342Z,922.47
2018-01-31T01:58:01.158Z,922.41
2018-01-31T01:59:32.969Z,922.46
2018-01-31T02:01:04.882Z,922.41
2018-01-31T02:02:36.596Z,922.40
2018-01-31T02:04:08.412Z,922.44
2018-01-31T02:05:40.222Z,922.49
2018-01-31T02:07:12.174Z,922.50
2018-01-31T02:08:43.850Z,922.48
2018-01-31T02:10:15.663Z,922.45
2018-01-31T02:11:47.476Z,922.48
2018-01-31T02:13:19.290Z,922.43
2018-01-31T02:14:51.104Z,922.38
2018-01-31T02:16:22.917Z,922.38
2018-01-31T02:17:54.730Z,922.38
2018-01-31T02:19:26.649Z,922.36
2018-01-31T02:20:58.357Z,922.35
2018-01-31T02:22:30.171Z,922.34
2018-01-31T02:24:01.984Z,922.34
2018-01-31T02:25:33.797Z,922.33
2018-01-31T02:27:05.611Z,922.32
2018-01-31T02:28:37.424Z,922.34
2018-01-31T02:30:09.238Z,922.38
2018-01-31T02:31:41.051Z,922.39
2018-01-31T02:33:12.864Z,922.38
2018-01-31T02:34:44.678Z,922.32
2018-01-31T02:36:16.492Z,922.32
2018-01-31T02:37:48.405Z,922.21
2018-01-31T02:39:20.118Z,922.21
2018-01-31T02:40:51.933Z,922.19
2018-01-31T02:42:23.748Z,922.16
2018-01-31T02:43:55.560Z,922.15
2018-01-31T02:45:27.373Z,922.16
2018-01-31T02:46:59.187Z,922.18
2018-01-31T02:48:31.007Z,922.06
2018-01-31T02:50:02.819Z,922.07
2018-01-31T02:51:34.628Z,922.07
2018-01-31T02:53:06.451Z,922.05
2018-01-31T02:54:38.255Z,922.05
2018-01-31T02:56:10.320Z,921.98
2018-01-31T02:57:41.883Z,921.96
2018-01-31T02:59:13.696Z,921.94
2018-01-31T03:00:45.509Z,921.96
2018-01-31T03:02:17.330Z,921.91
2018-01-31T03:03:49.137Z,921.93
2018-01-31T03:05:20.950Z,921.86
2018-01-31T03:06:52.763Z,921.92
2018-01-31T03:08:24.577Z,921.87
2018-01-31T03:09:56.390Z,921.88
2018-01-31T03:11:28.204Z,921.82
2018-01-31T03:13:00.019Z,921.84
2018-01-31T03:14:31.931Z,921.79
2018-01-31T03:16:03.644Z,921.85
2018-01-31T03:17:35.459Z,921.81
2018-01-31T03:19:07.274Z,921.74
2018-01-31T03:20:39.121Z,921.73
2018-01-31T03:22:10.897Z,921.79
2018-01-31T03:23:42.711Z,921.71
2018-01-31T03:25:14.525Z,921.73
2018-01-31T03:26:46.359Z,921.75
2018-01-31T03:28:18.156Z,921.72
2018-01-31T03:29:49.964Z,921.72
2018-01-31T03:31:21.778Z,921.72
2018-01-31T03:32:53.705Z,921.77
2018-01-31T03:34:25.403Z,921.73
2018-01-31T03:35:57.217Z,921.66
2018-01-31T03:37:29.031Z,921.63
2018-01-31T03:39:00.856Z,921.73
2018-01-31T03:40:32.657Z,921.74
2018-01-31T03:42:04.471Z,921.74
2018-01-31T03:43:36.288Z,921.68
2018-01-31T03:45:08.131Z,921.67
2018-01-31T03:46:40.218Z,921.71
2018-01-31T03:48:11.725Z,921.58
2018-01-31T03:49:43.549Z,921.62
2018-01-31T03:51:15.453Z,921.60
2018-01-31T03:52:47.166Z,921.62
2018-01-31T03:54:18.980Z,921.60
2018-01-31T03:55:50.794Z,921.50
2018-01-31T03:57:22.758Z,921.47
2018-01-31T03:58:54.422Z,921.48
2018-01-31T04:00:26.236Z,921.44
2018-01-31T04:01:58.050Z,921.38
2018-01-31T04:03:29.864Z,921.36
2018-01-31T04:05:01.680Z,921.38
2018-01-31T04:06:33.491Z,921.34
2018-01-31T04:08:05.305Z,921.38
2018-01-31T04:09:37.218Z,921.46
2018-01-31T04:11:08.933Z,921.44
2018-01-31T04:12:40.747Z,921.45
2018-01-31T04:14:12.559Z,921.42
2018-01-31T04:15:44.408Z,921.43
2018-01-31T04:17:16.192Z,921.39
2018-01-31T04:18:48.000Z,921.35
2018-01-31T04:20:19.813Z,921.27
2018-01-31T04:21:51.626Z,921.31
2018-01-31T04:23:23.440Z,921.30
2018-01-31T04:24:55.259Z,921.30
2018-01-31T04:26:27.067Z,921.30
2018-01-31T04:27:59.031Z,921.40
2018-01-31T04:29:30.694Z,921.41
2018-01-31T04:31:02.508Z,921.38
2018-01-31T04:32:34.321Z,921.34
2018-01-31T04:34:06.135Z,921.34
2018-01-31T04:35:37.951Z,921.34
2018-01-31T04:37:09.763Z,921.28
2018-01-31T04:38:41.577Z,921.29
2018-01-31T04:40:13.390Z,921.25
2018-01-31T04:41:45.204Z,921.24
2018-01-31T04:43:17.018Z,921.20
2018-01-31T04:44:48.832Z,921.18
2018-01-31T04:46:20.747Z,921.26
2018-01-31T04:47:52.460Z,921.20
2018-01-31T04:49:24.273Z,921.16
2018-01-31T04:50:56.089Z,921.14
2018-01-31T04:52:27.901Z,921.10
2018-01-31T04:53:59.715Z,921.08
2018-01-31T04:55:31.530Z,920.97
2018-01-31T04:57:03.344Z,920.98
2018-01-31T04:58:35.308Z,920.97
2018-01-31T05:00:06.972Z,920.98
2018-01-31T05:01:38.787Z,920.89
2018-01-31T05:03:10.600Z,920.88
2018-01-31T05:04:42.516Z,920.93
2018-01-31T05:06:14.227Z,920.97
2018-01-31T05:07:46.038Z,921.02
2018-01-31T05:09:17.852Z,921.05
2018-01-31T05:10:49.666Z,921.09
2018-01-31T05:12:21.480Z,921.03
2018-01-31T05:13:53.293Z,921.00
2018-01-31T05:15:25.108Z,920.99
2018-01-31T05:16:56.922Z,920.92
2018-01-31T05:18:28.736Z,920.89
2018-01-31T05:20:00.550Z,920.92
2018-01-31T05:21:32.363Z,920.92
2018-01-31T05:23:04.278Z,920.87
2018-01-31T05:24:35.992Z,920.81
2018-01-31T05:26:07.806Z,920.84
2018-01-31T05:27:39.620Z,920.92
2018-01-31T05:29:11.433Z,920.96
2018-01-31T05:30:43.248Z,920.97
2018-01-31T05:32:15.063Z,920.98
2018-01-31T05:33:46.877Z,920.94
2018-01-31T05:35:18.694Z,920.96
2018-01-31T05:36:50.504Z,920.97
2018-01-31T05:38:22.319Z,920.95
2018-01-31T05:39:54.133Z,920.96
2018-01-31T05:41:26.048Z,920.84
2018-01-31T05:42:57.762Z,920.82
2018-01-31T05:44:29.577Z,920.86
2018-01-31T05:46:01.392Z,920.97
2018-01-31T05:47:33.204Z,921.00
2018-01-31T05:49:05.020Z,921.05
2018-01-31T05:50:36.833Z,921.00
2018-01-31T05:52:08.648Z,920.99
2018-01-31T05:53:40.461Z,920.98
2018-01-31T05:55:12.276Z,920.99
2018-01-31T05:56:44.090Z,920.97
2018-01-31T05:58:15.905Z,920.98
2018-01-31T05:59:47.970Z,920.92
2018-01-31T06:01:19.537Z,920.90
2018-01-31T06:02:51.348Z,920.91
2018-01-31T06:04:23.162Z,920.86
2018-01-31T06:05:54.976Z,920.90
2018-01-31T06:07:26.790Z,920.93
2018-01-31T06:08:58.606Z,920.93
2018-01-31T06:10:30.421Z,920.92
2018-01-31T06:12:02.237Z,920.90
2018-01-31T06:13:34.049Z,920.90
2018-01-31T06:15:05.863Z,920.91
2018-01-31T06:16:37.681Z,920.85
2018-01-31T06:18:09.591Z,920.86
2018-01-31T06:19:41.306Z,920.81
2018-01-31T06:21:13.124Z,920.81
2018-01-31T06:22:44.934Z,920.86
2018-01-31T06:24:16.849Z,920.81
2018-01-31T06:25:48.564Z,920.85
2018-01-31T06:27:20.378Z,920.82
2018-01-31T06:28:52.192Z,920.87
2018-01-31T06:30:24.256Z,920.82
2018-01-31T06:31:55.821Z,920.86
2018-01-31T06:33:27.636Z,920.85
2018-01-31T06:34:59.451Z,920.83
2018-01-31T06:36:31.409Z,920.85
2018-01-31T06:38:03.080Z,920.89
2018-01-31T06:39:34.893Z,920.88
2018-01-31T06:41:06.709Z,920.89
2018-01-31T06:42:38.522Z,920.91
2018-01-31T06:44:10.339Z,920.88
2018-01-31T06:45:42.153Z,920.92
2018-01-31T06:47:13.967Z,920.92
2018-01-31T06:48:45.881Z,920.88
2018-01-31T06:50:17.596Z,920.93
2018-01-31T06:51:49.412Z,920.92
2018-01-31T06:53:21.226Z,920.94
2018-01-31T06:54:53.140Z,920.94
2018-01-31T06:56:24.854Z,920.89
2018-01-31T06:57:56.670Z,920.92
2018-01-31T06:59:28.483Z,920.97
2018-01-31T07:01:00.448Z,920.95
2018-01-31T07:02:32.113Z,920.95
2018-01-31T07:04:03.928Z,920.99
2018-01-31T07:05:35.742Z,921.00
2018-01-31T07:07:07.656Z,921.01
2018-01-31T07:08:39.371Z,921.04
2018-01-31T07:10:11.186Z,921.05
2018-01-31T07:11:42.999Z,921.04
2018-01-31T07:13:14.914Z,921.04
2018-01-31T07:14:46.627Z,921.11
2018-01-31T07:16:18.439Z,921.11
2018-01-31T07:17:50.255Z,921.09
2018-01-31T07:19:22.118Z,921.05
2018-01-31T07:20:53.883Z,921.05
2018-01-31T07:22:25.697Z,921.05
2018-01-31T07:23:57.529Z,921.09
2018-01-31T07:25:29.377Z,921.03
2018-01-31T07:27:01.140Z,921.06
2018-01-31T07:28:32.964Z,921.06
2018-01-31T07:30:04.766Z,921.00
2018-01-31T07:31:36.954Z,921.06
2018-01-31T07:33:08.394Z,921.11
2018-01-31T07:34:40.219Z,921.07
2018-01-31T07:36:12.023Z,921.08
2018-01-31T07:37:43.936Z,921.07
2018-01-31T07:39:15.647Z,921.04
2018-01-31T07:40:47.460Z,921.14
2018-01-31T07:42:19.275Z,921.10
2018-01-31T07:43:51.187Z,921.12
2018-01-31T07:45:22.902Z,921.17
2018-01-31T07:46:54.713Z,921.18
2018-01-31T07:48:26.527Z,921.24
2018-01-31T07:49:58.441Z,921.24
2018-01-31T07:51:30.154Z,921.20
2018-01-31T07:53:01.966Z,921.23
2018-01-31T07:54:33.781Z,921.21
2018-01-31T07:56:05.595Z,921.21
2018-01-31T07:57:37.408Z,921.25
2018-01-31T07:59:09.220Z,921.27
2018-01-31T08:00:41.035Z,921.27
2018-01-31T08:02:12.847Z,921.21
2018-01-31T08:03:44.664Z,921.25
2018-01-31T08:05:16.475Z,921.25
2018-01-31T08:06:48.394Z,921.29
2018-01-31T08:08:20.254Z,921.24
2018-01-31T08:09:51.915Z,921.25
2018-01-31T08:11:23.729Z,921.28
2018-01-31T08:12:55.542Z,921.28
2018-01-31T08:14:27.356Z,921.29
2018-01-31T08:15:59.273Z,921.32
2018-01-31T08:17:31.045Z,921.36
2018-01-31T08:19:02.808Z,921.35
2018-01-31T08:20:34.611Z,921.34
2018-01-31T08:22:06.537Z,921.30
2018-01-31T08:23:38.342Z,921.35
2018-01-31T08:25:10.051Z,921.36
2018-01-31T08:26:42.115Z,921.33
2018-01-31T08:28:13.834Z,921.33
2018-01-31T08:29:45.602Z,921.34
2018-01-31T08:31:17.306Z,921.40
2018-01-31T08:32:49.367Z,921.39
2018-01-31T08:34:20.977Z,921.42
2018-01-31T08:35:52.826Z,921.43
2018-01-31T08:37:24.652Z,921.51
2018-01-31T08:38:56.365Z,921.55
2018-01-31T08:40:28.341Z,921.61
2018-01-31T08:42:00.043Z,921.62
2018-01-31T08:43:31.924Z,921.66
2018-01-31T08:45:03.718Z,921.65
2018-01-31T08:46:35.481Z,921.70
2018-01-31T08:48:07.321Z,921.74
2018-01-31T08:49:39.191Z,921.76
2018-01-31T08:51:11.045Z,921.82
2018-01-31T08:52:42.942Z,921.77
2018-01-31T08:54:14.517Z,921.80
2018-01-31T08:55:46.509Z,921.83
2018-01-31T08:57:18.247Z,921.87
2018-01-31T08:58:50.034Z,921.90
2018-01-31T09:00:21.851Z,921.93
2018-01-31T09:01:53.563Z,921.90
2018-01-31T09:03:25.543Z,921.91
2018-01-31T09:04:57.687Z,921.93
2018-01-31T09:06:29.091Z,921.99
2018-01-31T09:08:00.827Z,921.99
2018-01-31T09:09:32.765Z,922.02
2018-01-31T09:11:04.446Z,921.99
2018-01-31T09:12:36.295Z,921.97
2018-01-31T09:14:08.146Z,922.00
2018-01-31T09:15:40.057Z,921.97
2018-01-31T09:17:11.698Z,922.03
2018-01-31T09:18:43.678Z,921.99
2018-01-31T09:20:15.449Z,922.03
2018-01-31T09:21:47.806Z,922.00
2018-01-31T09:23:19.601Z,922.07
2018-01-31T09:24:51.407Z,922.05
2018-01-31T09:26:23.247Z,922.07
2018-01-31T09:27:54.605Z,922.12
2018-01-31T09:29:26.318Z,922.14
2018-01-31T09:30:58.638Z,922.20
2018-01-31T09:32:30.036Z,922.21
2018-01-31T09:34:01.670Z,922.26
2018-01-31T09:35:34.036Z,922.30
2018-01-31T09:37:05.468Z,922.31
2018-01-31T09:38:37.520Z,922.34
2018-01-31T09:40:09.484Z,922.39
2018-01-31T09:41:40.762Z,922.40
2018-01-31T09:43:14.146Z,922.44
2018-01-31T09:44:45.460Z,922.45
2018-01-31T09:46:16.603Z,922.45
2018-01-31T09:47:48.743Z,922.43
2018-01-31T09:49:20.519Z,922.51
2018-01-31T09:50:51.967Z,922.50
2018-01-31T09:52:27.008Z,922.54
2018-01-31T09:53:55.913Z,922.46
2018-01-31T09:55:27.137Z,922.57
2018-01-31T09:57:00.248Z,922.56
2018-01-31T09:58:32.850Z,922.55
2018-01-31T10:00:02.621Z,922.59
2018-01-31T10:01:34.683Z,922.56
2018-01-31T10:03:07.295Z,922.55
2018-01-31T10:04:38.741Z,922.56
2018-01-31T10:06:09.814Z,922.52
2018-01-31T10:07:43.171Z,922.60
2018-01-31T10:09:13.612Z,922.66
2018-01-31T10:10:46.397Z,922.73
2018-01-31T10:12:17.142Z,922.70
2018-01-31T10:13:49.356Z,922.67
2018-01-31T10:15:20.794Z,922.69
2018-01-31T10:16:53.148Z,922.74
2018-01-31T10:18:24.553Z,922.75
2018-01-31T10:19:56.270Z,922.78
2018-01-31T10:21:28.186Z,922.86
2018-01-31T10:23:00.661Z,922.79
2018-01-31T10:24:32.188Z,922.82
2018-01-31T10:26:03.894Z,922.79
2018-01-31T10:27:36.556Z,922.85
2018-01-31T10:29:08.221Z,922.89
2018-01-31T10:30:39.550Z,922.93
2018-01-31T10:32:11.067Z,922.91
2018-01-31T10:33:42.513Z,922.95
2018-01-31T10:35:15.271Z,922.96
2018-01-31T10:36:46.765Z,922.87
2018-01-31T10:38:19.409Z,922.90
2018-01-31T10:39:50.803Z,922.93
2018-01-31T10:41:23.543Z,923.01
2018-01-31T10:42:53.891Z,923.02
2018-01-31T10:44:25.867Z,923.00
2018-01-31T10:45:57.372Z,922.96
2018-01-31T10:47:29.472Z,923.15
2018-01-31T10:49:00.909Z,923.07
2018-01-31T10:50:35.821Z,923.16
2018-01-31T10:52:04.941Z,923.05
2018-01-31T10:58:11.602Z,923.16
2018-01-31T10:59:43.794Z,923.11
2018-01-31T11:01:15.243Z,923.35
2018-01-31T11:02:47.066Z,923.36
2018-01-31T11:04:18.886Z,923.16
2018-01-31T11:05:50.808Z,923.26
2018-01-31T11:07:23.018Z,923.40
2018-01-31T11:08:54.780Z,923.12
2018-01-31T11:10:26.183Z,923.21
2018-01-31T11:11:58.211Z,923.38
2018-01-31T11:13:29.864Z,923.39
2018-01-31T11:15:01.647Z,923.42
2018-01-31T11:16:33.475Z,923.40
2018-01-31T11:18:05.277Z,923.33
2018-01-31T11:19:37.612Z,923.27
2018-01-31T11:21:09.510Z,923.25
2018-01-31T11:22:40.999Z,923.38
2018-01-31T11:24:12.642Z,923.46
2018-01-31T11:25:44.445Z,923.37
2018-01-31T11:27:16.216Z,923.39
2018-01-31T11:28:48.031Z,923.35
2018-01-31T11:30:19.962Z,923.40
2018-01-31T11:31:51.752Z,923.31
2018-01-31T11:33:23.492Z,923.38
2018-01-31T11:34:55.312Z,923.49
2018-01-31T11:36:27.233Z,923.71
2018-01-31T11:37:59.008Z,923.76
2018-01-31T11:39:30.997Z,923.69
2018-01-31T11:41:02.658Z,923.37
2018-01-31T11:42:34.669Z,923.39
2018-01-31T11:44:06.241Z,923.45
2018-01-31T11:45:38.066Z,923.42
2018-01-31T11:47:09.888Z,923.50
2018-01-31T11:48:41.975Z,923.48
2018-01-31T11:50:13.546Z,923.49
2018-01-31T11:51:45.660Z,923.44
2018-01-31T11:53:17.178Z,923.40
2018-01-31T11:54:49.098Z,923.60
2018-01-31T11:56:20.872Z,923.67
2018-01-31T11:57:52.714Z,923.46
2018-01-31T11:59:24.462Z,923.43
2018-01-31T12:00:56.451Z,923.43
2018-01-31T12:02:28.108Z,923.44
2018-01-31T12:04:00.098Z,923.57
2018-01-31T12:05:32.135Z,923.58
2018-01-31T12:07:03.839Z,923.68
2018-01-31T12:08:35.760Z,923.74
2018-01-31T12:10:07.705Z,923.70
2018-01-31T12:11:39.759Z,923.73
2018-01-31T12:13:11.047Z,924.01
2018-01-31T12:14:43.579Z,924.02
2018-01-31T12:16:14.711Z,924.17
2018-01-31T12:17:47.866Z,924.02
2018-01-31T12:19:19.232Z,924.09
2018-01-31T12:20:50.152Z,924.08
2018-01-31T12:22:21.821Z,924.12
2018-01-31T12:23:54.014Z,924.03
2018-01-31T12:25:25.974Z,923.84
2018-01-31T12:26:57.446Z,923.83
2018-01-31T12:28:29.142Z,923.66
2018-01-31T12:30:01.133Z,923.51
2018-01-31T12:31:32.883Z,923.71
2018-01-31T12:33:04.653Z,923.84
2018-01-31T12:34:36.696Z,923.95
2018-01-31T12:36:08.253Z,923.87
2018-01-31T12:37:40.163Z,923.67
2018-01-31T12:39:11.908Z,923.75
2018-01-31T12:40:43.733Z,923.83
2018-01-31T12:42:15.550Z,923.94
2018-01-31T12:43:47.474Z,923.93
2018-01-31T12:45:19.199Z,923.99
2018-01-31T12:46:51.021Z,924.06
2018-01-31T12:48:22.844Z,924.08
2018-01-31T12:49:54.667Z,924.06
2018-01-31T12:51:26.538Z,924.05
2018-01-31T12:52:58.312Z,923.96
2018-01-31T12:54:30.141Z,923.86
2018-01-31T12:56:01.958Z,923.88
2018-01-31T12:57:33.780Z,923.86
2018-01-31T12:59:05.602Z,923.85
2018-01-31T13:00:37.424Z,923.89
2018-01-31T13:02:09.562Z,924.00
2018-01-31T13:03:41.105Z,924.22
2018-01-31T13:05:12.888Z,924.44
2018-01-31T13:06:44.707Z,924.37
2018-01-31T13:08:16.572Z,924.31
2018-01-31T13:09:48.349Z,924.29
2018-01-31T13:11:20.437Z,924.43
2018-01-31T13:12:52.312Z,924.52
2018-01-31T13:14:23.913Z,924.43
2018-01-31T13:15:56.116Z,924.28
2018-01-31T13:17:28.009Z,924.20
2018-01-31T13:18:59.288Z,924.20
2018-01-31T13:20:31.296Z,924.22
2018-01-31T13:22:02.949Z,924.21
2018-01-31T13:23:35.158Z,924.27
2018-01-31T13:25:07.286Z,924.26
2018-01-31T13:26:38.646Z,924.24
2018-01-31T13:28:10.853Z,924.41
2018-01-31T13:29:42.295Z,924.36
2018-01-31T13:31:14.840Z,924.13
2018-01-31T13:32:47.234Z,924.09
2018-01-31T13:34:17.495Z,924.17
2018-01-31T13:35:49.685Z,924.28
2018-01-31T13:37:21.563Z,924.19
2018-01-31T13:38:53.555Z,924.10
2018-01-31T13:40:25.252Z,924.11
2018-01-31T13:41:56.791Z,924.12
2018-01-31T13:43:28.691Z,924.27
2018-01-31T13:45:00.452Z,924.10
2018-01-31T13:46:32.067Z,924.05
2018-01-31T13:48:05.484Z,924.03
2018-01-31T13:49:35.721Z,924.12
2018-01-31T13:51:07.542Z,924.21
2018-01-31T13:52:39.422Z,924.29
2018-01-31T13:54:11.171Z,924.37
2018-01-31T13:55:43.040Z,924.34
2018-01-31T13:57:14.915Z,924.51
2018-01-31T13:58:46.631Z,924.62
2018-01-31T14:00:21.671Z,924.58
2018-01-31T14:01:50.272Z,924.56
2018-01-31T14:03:22.326Z,924.58
2018-01-31T14:04:53.910Z,924.62
2018-01-31T14:06:25.788Z,924.56
2018-01-31T14:07:58.071Z,924.63
2018-01-31T14:09:29.374Z,924.65
2018-01-31T14:11:01.199Z,924.69
2018-01-31T14:12:33.021Z,924.67
2018-01-31T14:14:04.844Z,924.73
2018-01-31T14:15:36.831Z,924.68
2018-01-31T14:17:08.551Z,924.65
2018-01-31T14:18:40.349Z,924.62
2018-01-31T14:20:12.221Z,924.59
2018-01-31T14:21:44.202Z,924.59
2018-01-31T14:23:15.788Z,924.60
2018-01-31T14:24:47.611Z,924.54
2018-01-31T14:26:19.961Z,924.55
2018-01-31T14:27:51.351Z,924.66
2018-01-31T14:29:23.117Z,924.63
2018-01-31T14:30:55.467Z,924.47
2018-01-31T14:32:27.989Z,924.22
2018-01-31T14:33:58.765Z,924.42
2018-01-31T14:35:30.426Z,924.77
2018-01-31T14:37:02.220Z,924.62
2018-01-31T14:38:34.029Z,924.64
2018-01-31T14:40:05.917Z,924.64
2018-01-31T14:41:37.679Z,924.46
2018-01-31T14:43:09.505Z,924.31
2018-01-31T14:44:41.359Z,924.16
2018-01-31T14:46:14.189Z,924.18
2018-01-31T14:47:45.072Z,924.27
2018-01-31T14:49:16.838Z,924.37
2018-01-31T14:50:48.646Z,924.38
2018-01-31T14:52:21.512Z,924.41
2018-01-31T14:53:52.393Z,924.54
2018-01-31T14:55:24.233Z,924.52
2018-01-31T14:56:57.310Z,924.44
2018-01-31T14:58:28.845Z,924.23
2018-01-31T14:59:59.581Z,924.20
2018-01-31T15:01:31.406Z,924.01
2018-01-31T15:03:03.313Z,924.10
2018-01-31T15:04:36.161Z,924.29
2018-01-31T15:06:07.100Z,924.28
2018-01-31T15:07:38.825Z,924.34
2018-01-31T15:09:11.221Z,924.19
2018-01-31T15:10:42.572Z,924.15
2018-01-31T15:12:14.607Z,923.98
2018-01-31T15:13:46.666Z,923.98
2018-01-31T15:15:18.470Z,924.08
2018-01-31T15:16:50.056Z,924.38
2018-01-31T15:18:21.872Z,924.33
2018-01-31T15:19:53.653Z,924.44
2018-01-31T15:21:25.158Z,924.30
2018-01-31T15:22:57.136Z,924.32
2018-01-31T15:24:29.965Z,924.20
2018-01-31T15:26:00.647Z,924.16
2018-01-31T15:27:32.453Z,924.29
2018-01-31T15:29:04.582Z,924.24
2018-01-31T15:30:39.188Z,924.10
2018-01-31T15:32:11.925Z,923.97
2018-01-31T15:33:44.339Z,924.03
2018-01-31T15:35:11.774Z,924.03
2018-01-31T15:36:43.692Z,924.19
2018-01-31T15:38:15.298Z,924.09
2018-01-31T15:39:47.066Z,924.21
2018-01-31T15:41:19.749Z,924.06
2018-01-31T15:42:50.745Z,923.66
2018-01-31T15:44:23.180Z,923.47
2018-01-31T15:45:54.370Z,923.63
2018-01-31T15:47:26.545Z,923.92
2018-01-31T15:48:58.428Z,923.89
2018-01-31T15:50:29.933Z,923.93
2018-01-31T15:52:06.320Z,923.96
2018-01-31T15:53:38.048Z,924.07
2018-01-31T15:55:05.387Z,923.98
2018-01-31T15:56:37.144Z,923.83
2018-01-31T15:58:08.970Z,923.82
2018-01-31T15:59:41.583Z,923.76
2018-01-31T16:01:14.908Z,923.84
2018-01-31T16:02:44.445Z,923.82
2018-01-31T16:04:16.271Z,923.76
2018-01-31T16:05:48.357Z,923.62
2018-01-31T16:07:20.167Z,923.59
2018-01-31T16:08:51.745Z,923.64
2018-01-31T16:10:23.576Z,923.58
2018-01-31T16:11:55.554Z,923.57
2018-01-31T16:13:27.219Z,923.53
2018-01-31T16:14:59.062Z,923.54
2018-01-31T16:16:30.883Z,923.55
2018-01-31T16:18:02.971Z,923.53
2018-01-31T16:19:34.577Z,923.62
2018-01-31T16:21:06.513Z,923.85
2018-01-31T16:22:38.557Z,924.17
2018-01-31T16:24:10.305Z,924.07
2018-01-31T16:25:41.850Z,923.88
2018-01-31T16:27:13.693Z,923.75
2018-01-31T16:28:45.452Z,923.91
2018-01-31T16:30:17.293Z,924.32
2018-01-31T16:31:49.101Z,924.11
2018-01-31T16:33:21.017Z,923.89
2018-01-31T16:34:52.771Z,923.97
2018-01-31T16:36:24.899Z,924.05
2018-01-31T16:37:56.401Z,923.72
2018-01-31T16:39:28.241Z,923.70
2018-01-31T16:41:00.081Z,923.78
2018-01-31T16:42:32.203Z,923.81
2018-01-31T16:44:03.733Z,924.06
2018-01-31T16:45:35.532Z,924.24
2018-01-31T16:47:07.360Z,923.98
2018-01-31T16:48:39.182Z,923.73
2018-01-31T16:50:11.855Z,923.78
2018-01-31T16:51:42.838Z,923.86
2018-01-31T16:53:14.664Z,924.07
2018-01-31T16:54:46.492Z,923.90
2018-01-31T16:56:18.319Z,923.92
2018-01-31T16:57:50.146Z,923.73
2018-01-31T16:59:21.974Z,923.94
2018-01-31T17:00:53.901Z,923.71
2018-01-31T17:02:25.629Z,923.53
2018-01-31T17:03:57.455Z,923.40
2018-01-31T17:05:29.283Z,923.38
2018-01-31T17:07:01.110Z,923.31
2018-01-31T17:08:32.941Z,923.33
2018-01-31T17:10:04.768Z,923.65
2018-01-31T17:11:36.598Z,923.58
2018-01-31T17:13:08.427Z,923.53
2018-01-31T17:14:40.257Z,923.64
2018-01-31T17:16:12.355Z,923.55
2018-01-31T17:17:43.915Z,923.76
2018-01-31T17:19:15.845Z,923.42
2018-01-31T17:20:47.573Z,923.52
2018-01-31T17:22:19.401Z,923.59
2018-01-31T17:23:51.229Z,923.56
2018-01-31T17:25:23.056Z,923.80
2018-01-31T17:26:54.885Z,923.71
2018-01-31T17:28:26.711Z,923.72
2018-01-31T17:29:58.539Z,923.72
2018-01-31T17:31:30.367Z,923.44
2018-01-31T17:33:02.208Z,923.35
2018-01-31T17:34:34.021Z,923.30
2018-01-31T17:36:05.860Z,923.27
2018-01-31T17:37:38.574Z,923.30
2018-01-31T17:39:09.497Z,923.22
2018-01-31T17:40:41.328Z,923.46
2018-01-31T17:42:13.147Z,923.42
2018-01-31T17:43:44.983Z,923.28
2018-01-31T17:45:16.925Z,923.35
2018-01-31T17:46:48.816Z,923.35
2018-01-31T17:48:20.461Z,923.38
2018-01-31T17:49:52.276Z,923.48
2018-01-31T17:51:24.303Z,923.45
2018-01-31T17:52:55.952Z,923.32
2018-01-31T17:54:27.757Z,923.72
2018-01-31T17:55:59.718Z,923.81
2018-01-31T17:57:31.411Z,923.68
2018-01-31T17:59:03.239Z,923.56
2018-01-31T18:00:35.067Z,923.49
2018-01-31T18:02:06.895Z,923.25
2018-01-31T18:03:38.724Z,923.76
2018-01-31T18:05:10.554Z,923.98
2018-01-31T18:06:42.398Z,923.80
2018-01-31T18:08:14.211Z,923.69
2018-01-31T18:09:46.037Z,923.57
2018-01-31T18:11:17.965Z,923.40
2018-01-31T18:12:49.691Z,923.45
2018-01-31T18:14:21.617Z,923.71
2018-01-31T18:15:53.344Z,923.42
2018-01-31T18:17:25.182Z,923.39
2018-01-31T18:18:57.011Z,923.37
2018-01-31T18:20:28.820Z,923.31
2018-01-31T18:22:00.648Z,923.34
2018-01-31T18:23:32.471Z,923.48
2018-01-31T18:25:04.296Z,923.70
2018-01-31T18:26:36.122Z,923.73
2018-01-31T18:28:07.945Z,923.47
2018-01-31T18:29:39.770Z,923.41
2018-01-31T18:31:11.618Z,923.15
2018-01-31T18:32:43.672Z,923.16
2018-01-31T18:34:15.247Z,923.48
2018-01-31T18:35:47.070Z,923.30
2018-01-31T18:37:18.896Z,923.13
2018-01-31T18:38:50.721Z,923.23
2018-01-31T18:40:22.546Z,923.30
2018-01-31T18:41:54.410Z,923.38
2018-01-31T18:43:26.196Z,923.45
2018-01-31T18:44:58.422Z,922.97
2018-01-31T18:46:29.885Z,923.10
2018-01-31T18:48:01.672Z,923.24
2018-01-31T18:49:33.496Z,922.98
2018-01-31T18:51:05.572Z,923.05
2018-01-31T18:52:37.148Z,923.21
2018-01-31T18:54:08.971Z,922.98
2018-01-31T18:55:40.795Z,922.95
2018-01-31T18:57:12.769Z,922.94
2018-01-31T18:58:44.443Z,922.89
2018-01-31T19:00:16.267Z,923.07
2018-01-31T19:01:48.107Z,923.13
2018-01-31T19:03:20.293Z,923.18
2018-01-31T19:04:51.739Z,923.26
2018-01-31T19:06:23.562Z,923.37
2018-01-31T19:07:55.387Z,923.19
2018-01-31T19:09:27.465Z,922.88
2018-01-31T19:10:59.035Z,922.82
2018-01-31T19:12:30.898Z,922.79
2018-01-31T19:14:02.684Z,922.87
2018-01-31T19:15:34.510Z,923.10
2018-01-31T19:17:06.332Z,923.13
2018-01-31T19:18:38.193Z,923.03
2018-01-31T19:20:09.981Z,922.92
2018-01-31T19:21:41.811Z,923.10
2018-01-31T19:23:13.667Z,922.96
2018-01-31T19:24:45.454Z,923.15
2018-01-31T19:26:17.304Z,923.13
2018-01-31T19:27:49.203Z,923.11
2018-01-31T19:29:20.955Z,923.25
2018-01-31T19:30:52.781Z,923.09
2018-01-31T19:32:24.610Z,923.03
2018-01-31T19:33:56.417Z,923.01
2018-01-31T19:35:28.228Z,922.84
2018-01-31T19:37:00.064Z,922.92
2018-01-31T19:38:31.879Z,922.97
2018-01-31T19:40:03.704Z,922.83
2018-01-31T19:41:35.537Z,922.96
2018-01-31T19:43:07.511Z,922.74
2018-01-31T19:44:39.207Z,922.85
2018-01-31T19:46:11.157Z,922.74
2018-01-31T19:47:42.838Z,922.86
2018-01-31T19:49:14.655Z,922.66
2018-01-31T19:50:46.479Z,922.67
2018-01-31T19:52:18.303Z,922.69
2018-01-31T19:53:50.126Z,922.80
2018-01-31T19:55:21.951Z,922.76
2018-01-31T19:56:53.774Z,922.70
2018-01-31T19:58:25.598Z,922.69
2018-01-31T19:59:57.421Z,922.72
2018-01-31T20:01:29.243Z,923.21
2018-01-31T20:03:01.065Z,922.77
2018-01-31T20:04:32.987Z,922.68
2018-01-31T20:06:04.709Z,923.04
2018-01-31T20:07:36.530Z,922.57
2018-01-31T20:09:08.353Z,922.77
2018-01-31T20:10:40.177Z,922.80
2018-01-31T20:12:11.996Z,922.72
2018-01-31T20:13:43.818Z,922.95
2018-01-31T20:15:15.638Z,922.84
2018-01-31T20:16:49.164Z,922.74
2018-01-31T20:18:19.282Z,922.73
2018-01-31T20:19:51.104Z,922.94
2018-01-31T20:21:22.924Z,922.80
2018-01-31T20:22:54.996Z,922.78
2018-01-31T20:24:26.566Z,922.75
2018-01-31T20:25:58.388Z,922.63
2018-01-31T20:27:30.210Z,922.57
2018-01-31T20:29:02.132Z,922.74
2018-01-31T20:30:33.853Z,922.73
2018-01-31T20:32:05.675Z,922.62
2018-01-31T20:33:37.498Z,922.73
2018-01-31T20:35:09.421Z,922.74
2018-01-31T20:36:41.141Z,922.67
2018-01-31T20:38:12.964Z,922.51
2018-01-31T20:39:44.786Z,922.52
2018-01-31T20:41:16.708Z,922.51
2018-01-31T20:42:48.429Z,922.49
2018-01-31T20:44:20.251Z,922.58
2018-01-31T20:45:52.073Z,922.58
2018-01-31T20:47:23.894Z,922.52
2018-01-31T20:48:55.716Z,922.64
2018-01-31T20:50:27.537Z,922.61
2018-01-31T20:51:59.359Z,922.65
2018-01-31T20:53:31.180Z,922.64
2018-01-31T20:55:03.037Z,922.57
2018-01-31T20:56:34.823Z,922.70
2018-01-31T20:58:06.645Z,922.79
2018-01-31T20:59:38.567Z,922.77
2018-01-31T21:01:10.289Z,922.82